sensor_id;sensor_type;location;lat;lon;timestamp;temperature;humidity
31735;DHT22;18313;48.518;9.124;2022-10-17T00:00:31;13.70;99.90
31735;DHT22;18313;48.518;9.124;2022-10-17T00:03:17;13.70;99.90
31735;DHT22;18313;48.518;9.124;2022-10-17T00:06:11;13.70;99.90
31735;DHT22;18313;48.518;9.124;2022-10-17T00:08:57;13.60;99.90
31735;DHT22;18313;48.518;9.124;2022-10-17T00:11:42;13.60;99.90
31735;DHT22;18313;48.518;9.124;2022-10-17T00:14:28;13.60;99.90
31735;DHT22;18313;48.518;9.124;2022-10-17T00:17:13;13.60;99.90
31735;DHT22;18313;48.518;9.124;2022-10-17T00:20:00;13.60;99.90
31735;DHT22;18313;48.518;9.124;2022-10-17T00:22:45;13.50;99.90
31735;DHT22;18313;48.518;9.124;2022-10-17T00:25:30;13.50;99.90
31735;DHT22;18313;48.518;9.124;2022-10-17T00:28:16;13.40;99.90
31735;DHT22;18313;48.518;9.124;2022-10-17T00:31:03;13.40;99.90
31735;DHT22;18313;48.518;9.124;2022-10-17T00:33:50;13.30;99.90
31735;DHT22;18313;48.518;9.124;2022-10-17T00:36:36;13.30;99.90
31735;DHT22;18313;48.518;9.124;2022-10-17T00:39:22;13.20;99.90
31735;DHT22;18313;48.518;9.124;2022-10-17T00:42:11;13.20;99.90
31735;DHT22;18313;48.518;9.124;2022-10-17T00:45:09;13.10;99.90
31735;DHT22;18313;48.518;9.124;2022-10-17T00:48:03;13.20;99.90
31735;DHT22;18313;48.518;9.124;2022-10-17T00:50:49;13.20;99.90
31735;DHT22;18313;48.518;9.124;2022-10-17T00:53:36;13.20;99.90
31735;DHT22;18313;48.518;9.124;2022-10-17T00:56:23;13.10;99.90
31735;DHT22;18313;48.518;9.124;2022-10-17T00:59:10;13.10;99.90
31735;DHT22;18313;48.518;9.124;2022-10-17T01:02:01;13.10;99.90
31735;DHT22;18313;48.518;9.124;2022-10-17T01:04:49;13.10;99.90
31735;DHT22;18313;48.518;9.124;2022-10-17T01:07:37;13.10;99.90
31735;DHT22;18313;48.518;9.124;2022-10-17T01:10:30;13.10;99.90
31735;DHT22;18313;48.518;9.124;2022-10-17T01:13:27;13.00;99.90
31735;DHT22;18313;48.518;9.124;2022-10-17T01:16:45;12.90;99.90
31735;DHT22;18313;48.518;9.124;2022-10-17T01:22:48;12.90;99.90
31735;DHT22;18313;48.518;9.124;2022-10-17T01:40:43;12.70;99.90
31735;DHT22;18313;48.518;9.124;2022-10-17T01:43:36;12.60;99.90
31735;DHT22;18313;48.518;9.124;2022-10-17T01:46:29;12.60;99.90
31735;DHT22;18313;48.518;9.124;2022-10-17T01:49:19;12.50;99.90
31735;DHT22;18313;48.518;9.124;2022-10-17T01:52:10;12.50;99.90
31735;DHT22;18313;48.518;9.124;2022-10-17T01:55:09;12.50;99.90
31735;DHT22;18313;48.518;9.124;2022-10-17T01:58:08;12.40;99.90
31735;DHT22;18313;48.518;9.124;2022-10-17T02:00:55;12.30;99.90
31735;DHT22;18313;48.518;9.124;2022-10-17T02:03:42;12.40;99.90
31735;DHT22;18313;48.518;9.124;2022-10-17T02:06:33;12.30;99.90
31735;DHT22;18313;48.518;9.124;2022-10-17T02:09:22;12.30;99.90
31735;DHT22;18313;48.518;9.124;2022-10-17T02:30:43;12.30;99.90
31735;DHT22;18313;48.518;9.124;2022-10-17T02:34:01;12.20;99.90
31735;DHT22;18313;48.518;9.124;2022-10-17T02:36:51;12.10;99.90
31735;DHT22;18313;48.518;9.124;2022-10-17T02:39:40;12.00;99.90
31735;DHT22;18313;48.518;9.124;2022-10-17T02:42:27;12.00;99.90
31735;DHT22;18313;48.518;9.124;2022-10-17T02:45:14;12.00;99.90
31735;DHT22;18313;48.518;9.124;2022-10-17T02:48:10;11.90;99.90
31735;DHT22;18313;48.518;9.124;2022-10-17T02:54:22;11.90;99.90
31735;DHT22;18313;48.518;9.124;2022-10-17T02:57:21;11.80;99.90
31735;DHT22;18313;48.518;9.124;2022-10-17T03:00:10;11.70;99.90
31735;DHT22;18313;48.518;9.124;2022-10-17T03:02:57;11.70;99.90
31735;DHT22;18313;48.518;9.124;2022-10-17T03:05:42;11.70;99.90
31735;DHT22;18313;48.518;9.124;2022-10-17T03:08:28;11.60;99.90
31735;DHT22;18313;48.518;9.124;2022-10-17T03:11:13;11.60;99.90
31735;DHT22;18313;48.518;9.124;2022-10-17T03:13:59;11.60;99.90
31735;DHT22;18313;48.518;9.124;2022-10-17T03:16:44;11.60;99.90
31735;DHT22;18313;48.518;9.124;2022-10-17T03:19:30;11.60;99.90
31735;DHT22;18313;48.518;9.124;2022-10-17T03:22:16;11.60;99.90
31735;DHT22;18313;48.518;9.124;2022-10-17T03:25:01;11.60;99.90
31735;DHT22;18313;48.518;9.124;2022-10-17T03:27:47;11.60;99.90
31735;DHT22;18313;48.518;9.124;2022-10-17T03:30:33;11.60;99.90
31735;DHT22;18313;48.518;9.124;2022-10-17T03:33:18;11.60;99.90
31735;DHT22;18313;48.518;9.124;2022-10-17T03:36:09;11.60;99.90
31735;DHT22;18313;48.518;9.124;2022-10-17T03:38:55;11.50;99.90
31735;DHT22;18313;48.518;9.124;2022-10-17T03:41:40;11.50;99.90
31735;DHT22;18313;48.518;9.124;2022-10-17T03:44:26;11.50;99.90
31735;DHT22;18313;48.518;9.124;2022-10-17T03:47:11;11.50;99.90
31735;DHT22;18313;48.518;9.124;2022-10-17T03:49:58;11.60;99.90
31735;DHT22;18313;48.518;9.124;2022-10-17T03:52:47;11.60;99.90
31735;DHT22;18313;48.518;9.124;2022-10-17T03:55:33;11.50;99.90
31735;DHT22;18313;48.518;9.124;2022-10-17T03:58:18;11.40;99.90
31735;DHT22;18313;48.518;9.124;2022-10-17T04:01:05;11.40;99.90
31735;DHT22;18313;48.518;9.124;2022-10-17T04:03:54;11.40;99.90
31735;DHT22;18313;48.518;9.124;2022-10-17T04:06:40;11.40;99.90
31735;DHT22;18313;48.518;9.124;2022-10-17T04:09:25;11.30;99.90
31735;DHT22;18313;48.518;9.124;2022-10-17T04:12:11;11.40;99.90
31735;DHT22;18313;48.518;9.124;2022-10-17T04:14:56;11.40;99.90
31735;DHT22;18313;48.518;9.124;2022-10-17T04:17:42;11.40;99.90
31735;DHT22;18313;48.518;9.124;2022-10-17T04:20:28;11.40;99.90
31735;DHT22;18313;48.518;9.124;2022-10-17T04:23:13;11.30;99.90
31735;DHT22;18313;48.518;9.124;2022-10-17T04:25:59;11.30;99.90
31735;DHT22;18313;48.518;9.124;2022-10-17T04:28:45;11.30;99.90
31735;DHT22;18313;48.518;9.124;2022-10-17T04:31:31;11.20;99.90
31735;DHT22;18313;48.518;9.124;2022-10-17T04:34:17;11.20;99.90
31735;DHT22;18313;48.518;9.124;2022-10-17T04:37:02;11.20;99.90
31735;DHT22;18313;48.518;9.124;2022-10-17T04:39:48;11.30;99.90
31735;DHT22;18313;48.518;9.124;2022-10-17T04:42:33;11.30;99.90
31735;DHT22;18313;48.518;9.124;2022-10-17T04:45:19;11.30;99.90
31735;DHT22;18313;48.518;9.124;2022-10-17T04:48:04;11.30;99.90
31735;DHT22;18313;48.518;9.124;2022-10-17T04:50:58;11.30;99.90
31735;DHT22;18313;48.518;9.124;2022-10-17T04:53:44;11.20;99.90
31735;DHT22;18313;48.518;9.124;2022-10-17T04:56:30;11.30;99.90
31735;DHT22;18313;48.518;9.124;2022-10-17T04:59:16;11.30;99.90
31735;DHT22;18313;48.518;9.124;2022-10-17T05:02:01;11.30;99.90
31735;DHT22;18313;48.518;9.124;2022-10-17T05:04:47;11.30;99.90
31735;DHT22;18313;48.518;9.124;2022-10-17T05:07:32;11.20;99.90
31735;DHT22;18313;48.518;9.124;2022-10-17T05:10:18;11.20;99.90
31735;DHT22;18313;48.518;9.124;2022-10-17T05:13:04;11.20;99.90
31735;DHT22;18313;48.518;9.124;2022-10-17T05:15:50;11.20;99.90
31735;DHT22;18313;48.518;9.124;2022-10-17T05:18:35;11.20;99.90
31735;DHT22;18313;48.518;9.124;2022-10-17T05:21:22;11.20;99.90
31735;DHT22;18313;48.518;9.124;2022-10-17T05:24:09;11.20;99.90
31735;DHT22;18313;48.518;9.124;2022-10-17T05:26:55;11.20;99.90
31735;DHT22;18313;48.518;9.124;2022-10-17T05:29:41;11.10;99.90
31735;DHT22;18313;48.518;9.124;2022-10-17T05:32:27;11.10;99.90
31735;DHT22;18313;48.518;9.124;2022-10-17T05:35:13;11.10;99.90
31735;DHT22;18313;48.518;9.124;2022-10-17T05:37:58;11.10;99.90
31735;DHT22;18313;48.518;9.124;2022-10-17T05:40:44;11.30;99.90
31735;DHT22;18313;48.518;9.124;2022-10-17T05:43:30;11.30;99.90
31735;DHT22;18313;48.518;9.124;2022-10-17T05:46:16;11.20;99.90
31735;DHT22;18313;48.518;9.124;2022-10-17T05:49:02;11.10;99.90
31735;DHT22;18313;48.518;9.124;2022-10-17T05:52:07;11.00;99.90
31735;DHT22;18313;48.518;9.124;2022-10-17T05:54:53;11.00;99.90
31735;DHT22;18313;48.518;9.124;2022-10-17T05:57:39;11.00;99.90
31735;DHT22;18313;48.518;9.124;2022-10-17T06:00:25;10.90;99.90
31735;DHT22;18313;48.518;9.124;2022-10-17T06:03:11;11.00;99.90
31735;DHT22;18313;48.518;9.124;2022-10-17T06:06:02;10.90;99.90
31735;DHT22;18313;48.518;9.124;2022-10-17T06:08:48;10.90;99.90
31735;DHT22;18313;48.518;9.124;2022-10-17T06:11:34;10.90;99.90
31735;DHT22;18313;48.518;9.124;2022-10-17T06:14:19;10.80;99.90
31735;DHT22;18313;48.518;9.124;2022-10-17T06:17:06;10.80;99.90
31735;DHT22;18313;48.518;9.124;2022-10-17T06:19:57;10.80;99.90
31735;DHT22;18313;48.518;9.124;2022-10-17T06:22:43;10.80;99.90
31735;DHT22;18313;48.518;9.124;2022-10-17T06:25:32;10.80;99.90
31735;DHT22;18313;48.518;9.124;2022-10-17T06:28:17;10.80;99.90
31735;DHT22;18313;48.518;9.124;2022-10-17T06:31:07;10.80;99.90
31735;DHT22;18313;48.518;9.124;2022-10-17T06:33:53;10.80;99.90
31735;DHT22;18313;48.518;9.124;2022-10-17T06:36:39;10.90;99.90
31735;DHT22;18313;48.518;9.124;2022-10-17T06:39:24;11.00;99.90
31735;DHT22;18313;48.518;9.124;2022-10-17T06:42:11;11.10;99.90
31735;DHT22;18313;48.518;9.124;2022-10-17T06:44:56;11.10;99.90
31735;DHT22;18313;48.518;9.124;2022-10-17T06:47:42;11.20;99.90
31735;DHT22;18313;48.518;9.124;2022-10-17T06:50:28;11.20;99.90
31735;DHT22;18313;48.518;9.124;2022-10-17T06:53:13;11.20;99.90
31735;DHT22;18313;48.518;9.124;2022-10-17T06:55:59;11.30;99.90
31735;DHT22;18313;48.518;9.124;2022-10-17T06:58:49;11.30;99.90
31735;DHT22;18313;48.518;9.124;2022-10-17T07:01:35;11.30;99.90
31735;DHT22;18313;48.518;9.124;2022-10-17T07:04:21;11.40;99.90
31735;DHT22;18313;48.518;9.124;2022-10-17T07:07:07;11.40;99.90
31735;DHT22;18313;48.518;9.124;2022-10-17T07:09:52;11.50;99.90
31735;DHT22;18313;48.518;9.124;2022-10-17T07:12:38;11.50;99.90
31735;DHT22;18313;48.518;9.124;2022-10-17T07:15:23;11.70;99.90
31735;DHT22;18313;48.518;9.124;2022-10-17T07:18:09;11.70;99.90
31735;DHT22;18313;48.518;9.124;2022-10-17T07:20:55;11.80;99.90
31735;DHT22;18313;48.518;9.124;2022-10-17T07:23:41;11.80;99.90
31735;DHT22;18313;48.518;9.124;2022-10-17T07:26:26;11.90;99.90
31735;DHT22;18313;48.518;9.124;2022-10-17T07:29:12;12.00;99.90
31735;DHT22;18313;48.518;9.124;2022-10-17T07:31:58;12.10;99.90
31735;DHT22;18313;48.518;9.124;2022-10-17T07:34:43;12.20;99.90
31735;DHT22;18313;48.518;9.124;2022-10-17T07:37:29;12.20;99.90
31735;DHT22;18313;48.518;9.124;2022-10-17T07:40:15;12.30;99.90
31735;DHT22;18313;48.518;9.124;2022-10-17T07:43:00;12.50;99.90
31735;DHT22;18313;48.518;9.124;2022-10-17T07:45:46;12.70;99.90
31735;DHT22;18313;48.518;9.124;2022-10-17T07:48:31;12.80;99.90
31735;DHT22;18313;48.518;9.124;2022-10-17T07:51:17;13.00;99.90
31735;DHT22;18313;48.518;9.124;2022-10-17T07:54:04;13.10;99.90
31735;DHT22;18313;48.518;9.124;2022-10-17T07:56:50;13.30;99.90
31735;DHT22;18313;48.518;9.124;2022-10-17T07:59:37;13.40;99.90
31735;DHT22;18313;48.518;9.124;2022-10-17T08:02:24;13.60;99.90
31735;DHT22;18313;48.518;9.124;2022-10-17T08:05:10;13.70;99.90
31735;DHT22;18313;48.518;9.124;2022-10-17T08:07:55;13.90;99.90
31735;DHT22;18313;48.518;9.124;2022-10-17T08:10:42;14.00;99.90
31735;DHT22;18313;48.518;9.124;2022-10-17T08:13:27;14.30;99.90
31735;DHT22;18313;48.518;9.124;2022-10-17T08:16:12;14.60;99.90
31735;DHT22;18313;48.518;9.124;2022-10-17T08:18:58;14.70;99.90
31735;DHT22;18313;48.518;9.124;2022-10-17T08:21:43;15.00;99.90
31735;DHT22;18313;48.518;9.124;2022-10-17T08:24:31;15.20;99.90
31735;DHT22;18313;48.518;9.124;2022-10-17T08:27:17;15.60;99.90
31735;DHT22;18313;48.518;9.124;2022-10-17T08:30:08;15.80;99.90
31735;DHT22;18313;48.518;9.124;2022-10-17T08:32:54;16.00;99.90
31735;DHT22;18313;48.518;9.124;2022-10-17T08:35:40;16.30;99.90
31735;DHT22;18313;48.518;9.124;2022-10-17T08:38:28;16.40;99.90
31735;DHT22;18313;48.518;9.124;2022-10-17T08:41:46;16.60;99.90
31735;DHT22;18313;48.518;9.124;2022-10-17T08:44:52;16.80;99.90
31735;DHT22;18313;48.518;9.124;2022-10-17T08:47:45;17.10;99.90
31735;DHT22;18313;48.518;9.124;2022-10-17T08:50:41;17.40;99.90
31735;DHT22;18313;48.518;9.124;2022-10-17T08:53:42;17.50;99.90
31735;DHT22;18313;48.518;9.124;2022-10-17T08:56:34;17.80;99.90
31735;DHT22;18313;48.518;9.124;2022-10-17T08:59:33;18.10;99.90
31735;DHT22;18313;48.518;9.124;2022-10-17T09:05:33;18.90;99.90
31735;DHT22;18313;48.518;9.124;2022-10-17T09:20:20;19.70;99.90
31735;DHT22;18313;48.518;9.124;2022-10-17T09:23:14;19.90;99.90
31735;DHT22;18313;48.518;9.124;2022-10-17T09:26:00;20.10;99.90
31735;DHT22;18313;48.518;9.124;2022-10-17T09:28:52;20.50;99.90
31735;DHT22;18313;48.518;9.124;2022-10-17T09:31:46;20.60;99.90
31735;DHT22;18313;48.518;9.124;2022-10-17T09:34:33;20.90;99.90
31735;DHT22;18313;48.518;9.124;2022-10-17T09:37:23;21.20;99.90
31735;DHT22;18313;48.518;9.124;2022-10-17T09:40:22;21.40;99.90
31735;DHT22;18313;48.518;9.124;2022-10-17T09:43:11;21.80;99.90
31735;DHT22;18313;48.518;9.124;2022-10-17T09:46:13;21.80;99.90
31735;DHT22;18313;48.518;9.124;2022-10-17T09:49:16;22.20;99.90
31735;DHT22;18313;48.518;9.124;2022-10-17T09:52:05;22.50;99.90
31735;DHT22;18313;48.518;9.124;2022-10-17T09:55:29;22.70;99.90
31735;DHT22;18313;48.518;9.124;2022-10-17T09:58:18;22.90;99.90
31735;DHT22;18313;48.518;9.124;2022-10-17T10:04:16;23.20;99.90
31735;DHT22;18313;48.518;9.124;2022-10-17T10:07:06;23.30;99.90
31735;DHT22;18313;48.518;9.124;2022-10-17T10:09:57;23.40;99.90
31735;DHT22;18313;48.518;9.124;2022-10-17T10:13:15;23.50;99.90
31735;DHT22;18313;48.518;9.124;2022-10-17T10:16:22;23.50;99.90
31735;DHT22;18313;48.518;9.124;2022-10-17T10:19:48;23.60;99.90
31735;DHT22;18313;48.518;9.124;2022-10-17T10:22:34;23.90;99.70
31735;DHT22;18313;48.518;9.124;2022-10-17T10:25:20;24.00;99.90
31735;DHT22;18313;48.518;9.124;2022-10-17T10:28:09;24.10;99.90
31735;DHT22;18313;48.518;9.124;2022-10-17T10:30:59;24.40;99.90
31735;DHT22;18313;48.518;9.124;2022-10-17T10:33:46;24.80;99.90
31735;DHT22;18313;48.518;9.124;2022-10-17T10:39:48;25.40;98.90
31735;DHT22;18313;48.518;9.124;2022-10-17T10:42:36;25.60;99.50
31735;DHT22;18313;48.518;9.124;2022-10-17T10:48:37;25.80;99.80
31735;DHT22;18313;48.518;9.124;2022-10-17T10:51:45;26.10;99.20
31735;DHT22;18313;48.518;9.124;2022-10-17T10:54:40;26.20;97.90
31735;DHT22;18313;48.518;9.124;2022-10-17T10:57:28;26.20;97.50
31735;DHT22;18313;48.518;9.124;2022-10-17T11:00:20;25.80;98.10
31735;DHT22;18313;48.518;9.124;2022-10-17T11:03:24;25.80;99.90
31735;DHT22;18313;48.518;9.124;2022-10-17T11:06:21;25.90;98.90
31735;DHT22;18313;48.518;9.124;2022-10-17T11:09:25;26.20;98.80
31735;DHT22;18313;48.518;9.124;2022-10-17T11:15:33;26.40;97.20
31735;DHT22;18313;48.518;9.124;2022-10-17T11:21:16;26.40;96.80
31735;DHT22;18313;48.518;9.124;2022-10-17T11:24:08;26.50;96.80
31735;DHT22;18313;48.518;9.124;2022-10-17T11:27:06;26.40;96.10
31735;DHT22;18313;48.518;9.124;2022-10-17T11:29:51;26.50;96.80
31735;DHT22;18313;48.518;9.124;2022-10-17T11:32:48;26.50;96.40
31735;DHT22;18313;48.518;9.124;2022-10-17T11:35:39;26.70;96.90
31735;DHT22;18313;48.518;9.124;2022-10-17T11:41:50;26.80;96.10
31735;DHT22;18313;48.518;9.124;2022-10-17T11:44:40;26.80;96.20
31735;DHT22;18313;48.518;9.124;2022-10-17T11:47:52;26.80;96.40
31735;DHT22;18313;48.518;9.124;2022-10-17T11:50:42;26.90;95.80
31735;DHT22;18313;48.518;9.124;2022-10-17T11:54:01;27.00;96.20
31735;DHT22;18313;48.518;9.124;2022-10-17T11:57:07;27.00;96.00
31735;DHT22;18313;48.518;9.124;2022-10-17T12:00:30;26.90;95.60
31735;DHT22;18313;48.518;9.124;2022-10-17T12:06:42;26.90;96.40
31735;DHT22;18313;48.518;9.124;2022-10-17T12:12:29;26.80;95.70
31735;DHT22;18313;48.518;9.124;2022-10-17T12:18:15;26.60;95.20
31735;DHT22;18313;48.518;9.124;2022-10-17T12:21:01;26.40;95.10
31735;DHT22;18313;48.518;9.124;2022-10-17T12:23:53;26.30;94.70
31735;DHT22;18313;48.518;9.124;2022-10-17T12:26:39;26.10;95.00
31735;DHT22;18313;48.518;9.124;2022-10-17T12:29:37;26.00;94.80
31735;DHT22;18313;48.518;9.124;2022-10-17T12:32:24;25.90;95.20
31735;DHT22;18313;48.518;9.124;2022-10-17T12:35:20;25.90;94.70
31735;DHT22;18313;48.518;9.124;2022-10-17T12:41:02;25.70;93.70
31735;DHT22;18313;48.518;9.124;2022-10-17T12:43:50;25.60;93.70
31735;DHT22;18313;48.518;9.124;2022-10-17T12:49:42;25.60;92.30
31735;DHT22;18313;48.518;9.124;2022-10-17T12:55:23;25.50;92.60
31735;DHT22;18313;48.518;9.124;2022-10-17T12:58:14;25.50;92.40
31735;DHT22;18313;48.518;9.124;2022-10-17T13:01:01;25.50;93.00
31735;DHT22;18313;48.518;9.124;2022-10-17T13:04:08;25.60;92.00
31735;DHT22;18313;48.518;9.124;2022-10-17T13:06:56;25.50;93.10
31735;DHT22;18313;48.518;9.124;2022-10-17T13:09:43;25.50;92.20
31735;DHT22;18313;48.518;9.124;2022-10-17T13:12:32;25.50;91.30
31735;DHT22;18313;48.518;9.124;2022-10-17T13:15:25;25.50;92.00
31735;DHT22;18313;48.518;9.124;2022-10-17T13:18:17;25.50;91.50
31735;DHT22;18313;48.518;9.124;2022-10-17T13:21:06;25.50;92.40
31735;DHT22;18313;48.518;9.124;2022-10-17T13:23:58;25.60;93.30
31735;DHT22;18313;48.518;9.124;2022-10-17T13:26:45;25.70;92.00
31735;DHT22;18313;48.518;9.124;2022-10-17T13:29:32;25.70;92.00
31735;DHT22;18313;48.518;9.124;2022-10-17T13:32:17;25.80;92.20
31735;DHT22;18313;48.518;9.124;2022-10-17T13:37:51;25.70;92.10
31735;DHT22;18313;48.518;9.124;2022-10-17T13:40:42;25.60;90.70
31735;DHT22;18313;48.518;9.124;2022-10-17T13:43:34;25.60;91.60
31735;DHT22;18313;48.518;9.124;2022-10-17T13:46:29;25.60;92.70
31735;DHT22;18313;48.518;9.124;2022-10-17T13:49:40;25.80;91.60
31735;DHT22;18313;48.518;9.124;2022-10-17T13:52:28;25.80;91.90
31735;DHT22;18313;48.518;9.124;2022-10-17T13:55:16;25.80;91.40
31735;DHT22;18313;48.518;9.124;2022-10-17T13:58:17;25.90;91.40
31735;DHT22;18313;48.518;9.124;2022-10-17T14:01:03;26.00;91.50
31735;DHT22;18313;48.518;9.124;2022-10-17T14:03:49;26.00;91.20
31735;DHT22;18313;48.518;9.124;2022-10-17T14:06:52;26.10;91.00
31735;DHT22;18313;48.518;9.124;2022-10-17T14:09:38;26.00;90.90
31735;DHT22;18313;48.518;9.124;2022-10-17T14:12:24;26.00;90.70
31735;DHT22;18313;48.518;9.124;2022-10-17T14:15:13;26.10;90.60
31735;DHT22;18313;48.518;9.124;2022-10-17T14:18:02;26.20;91.40
31735;DHT22;18313;48.518;9.124;2022-10-17T14:20:52;26.10;91.50
31735;DHT22;18313;48.518;9.124;2022-10-17T14:27:36;26.10;91.20
31735;DHT22;18313;48.518;9.124;2022-10-17T14:33:32;26.00;91.30
31735;DHT22;18313;48.518;9.124;2022-10-17T14:36:30;26.00;92.10
31735;DHT22;18313;48.518;9.124;2022-10-17T14:39:19;26.10;91.70
31735;DHT22;18313;48.518;9.124;2022-10-17T14:42:14;26.20;92.10
31735;DHT22;18313;48.518;9.124;2022-10-17T14:45:06;26.20;91.90
31735;DHT22;18313;48.518;9.124;2022-10-17T14:47:55;26.20;92.60
31735;DHT22;18313;48.518;9.124;2022-10-17T14:50:41;26.30;92.10
31735;DHT22;18313;48.518;9.124;2022-10-17T14:53:28;26.40;91.60
31735;DHT22;18313;48.518;9.124;2022-10-17T14:56:23;26.40;91.30
31735;DHT22;18313;48.518;9.124;2022-10-17T14:59:09;26.50;91.20
31735;DHT22;18313;48.518;9.124;2022-10-17T15:02:02;26.40;91.90
31735;DHT22;18313;48.518;9.124;2022-10-17T15:04:48;26.50;92.40
31735;DHT22;18313;48.518;9.124;2022-10-17T15:07:33;26.40;92.00
31735;DHT22;18313;48.518;9.124;2022-10-17T15:10:30;26.40;92.00
31735;DHT22;18313;48.518;9.124;2022-10-17T15:13:17;26.40;91.80
31735;DHT22;18313;48.518;9.124;2022-10-17T15:16:25;26.50;91.90
31735;DHT22;18313;48.518;9.124;2022-10-17T15:19:12;26.50;92.30
31735;DHT22;18313;48.518;9.124;2022-10-17T15:21:58;26.60;92.00
31735;DHT22;18313;48.518;9.124;2022-10-17T15:24:44;26.50;92.60
31735;DHT22;18313;48.518;9.124;2022-10-17T15:27:30;26.50;92.50
31735;DHT22;18313;48.518;9.124;2022-10-17T15:30:21;26.60;92.30
31735;DHT22;18313;48.518;9.124;2022-10-17T15:33:06;26.60;92.30
31735;DHT22;18313;48.518;9.124;2022-10-17T15:35:52;26.50;92.70
31735;DHT22;18313;48.518;9.124;2022-10-17T15:38:37;26.40;92.80
31735;DHT22;18313;48.518;9.124;2022-10-17T15:41:25;26.40;92.90
31735;DHT22;18313;48.518;9.124;2022-10-17T15:44:11;26.40;92.60
31735;DHT22;18313;48.518;9.124;2022-10-17T15:46:56;26.30;92.40
31735;DHT22;18313;48.518;9.124;2022-10-17T15:49:41;26.20;93.10
31735;DHT22;18313;48.518;9.124;2022-10-17T15:52:27;26.00;92.90
31735;DHT22;18313;48.518;9.124;2022-10-17T15:55:12;25.90;92.60
31735;DHT22;18313;48.518;9.124;2022-10-17T15:57:58;25.70;92.70
31735;DHT22;18313;48.518;9.124;2022-10-17T16:00:44;25.60;93.20
31735;DHT22;18313;48.518;9.124;2022-10-17T16:03:30;25.40;93.40
31735;DHT22;18313;48.518;9.124;2022-10-17T16:06:17;25.30;93.50
31735;DHT22;18313;48.518;9.124;2022-10-17T16:09:03;25.10;93.20
31735;DHT22;18313;48.518;9.124;2022-10-17T16:11:48;24.90;93.60
31735;DHT22;18313;48.518;9.124;2022-10-17T16:14:34;24.70;94.10
31735;DHT22;18313;48.518;9.124;2022-10-17T16:17:20;24.50;94.80
31735;DHT22;18313;48.518;9.124;2022-10-17T16:20:06;24.30;94.70
31735;DHT22;18313;48.518;9.124;2022-10-17T16:22:52;24.10;93.80
31735;DHT22;18313;48.518;9.124;2022-10-17T16:25:44;23.80;94.50
31735;DHT22;18313;48.518;9.124;2022-10-17T16:28:29;23.50;94.80
31735;DHT22;18313;48.518;9.124;2022-10-17T16:34:10;23.10;96.00
31735;DHT22;18313;48.518;9.124;2022-10-17T16:36:57;22.90;96.20
31735;DHT22;18313;48.518;9.124;2022-10-17T16:39:42;22.80;96.60
31735;DHT22;18313;48.518;9.124;2022-10-17T16:42:33;22.70;96.70
31735;DHT22;18313;48.518;9.124;2022-10-17T16:45:21;22.50;96.80
31735;DHT22;18313;48.518;9.124;2022-10-17T16:48:08;22.30;97.10
31735;DHT22;18313;48.518;9.124;2022-10-17T16:50:54;22.20;96.90
31735;DHT22;18313;48.518;9.124;2022-10-17T16:53:40;22.10;96.80
31735;DHT22;18313;48.518;9.124;2022-10-17T16:56:27;22.00;96.60
31735;DHT22;18313;48.518;9.124;2022-10-17T16:59:16;21.60;96.60
31735;DHT22;18313;48.518;9.124;2022-10-17T17:02:02;21.50;97.00
31735;DHT22;18313;48.518;9.124;2022-10-17T17:04:48;21.40;97.60
31735;DHT22;18313;48.518;9.124;2022-10-17T17:07:33;21.30;97.70
31735;DHT22;18313;48.518;9.124;2022-10-17T17:10:19;21.30;97.80
31735;DHT22;18313;48.518;9.124;2022-10-17T17:13:05;21.10;98.00
31735;DHT22;18313;48.518;9.124;2022-10-17T17:15:50;20.90;98.20
31735;DHT22;18313;48.518;9.124;2022-10-17T17:18:39;20.80;98.10
31735;DHT22;18313;48.518;9.124;2022-10-17T17:21:26;20.80;98.00
31735;DHT22;18313;48.518;9.124;2022-10-17T17:24:12;20.70;98.50
31735;DHT22;18313;48.518;9.124;2022-10-17T17:26:57;20.50;99.10
31735;DHT22;18313;48.518;9.124;2022-10-17T17:29:43;20.30;99.80
31735;DHT22;18313;48.518;9.124;2022-10-17T17:32:28;20.20;99.90
31735;DHT22;18313;48.518;9.124;2022-10-17T17:35:16;20.00;99.90
31735;DHT22;18313;48.518;9.124;2022-10-17T17:38:02;20.10;99.90
31735;DHT22;18313;48.518;9.124;2022-10-17T17:40:49;20.00;99.90
31735;DHT22;18313;48.518;9.124;2022-10-17T17:43:35;19.90;99.90
31735;DHT22;18313;48.518;9.124;2022-10-17T17:46:22;19.70;99.90
31735;DHT22;18313;48.518;9.124;2022-10-17T17:49:09;19.60;99.90
31735;DHT22;18313;48.518;9.124;2022-10-17T17:51:55;19.50;99.90
31735;DHT22;18313;48.518;9.124;2022-10-17T17:54:41;19.50;99.90
31735;DHT22;18313;48.518;9.124;2022-10-17T17:57:28;19.30;99.90
31735;DHT22;18313;48.518;9.124;2022-10-17T18:00:14;19.20;99.90
31735;DHT22;18313;48.518;9.124;2022-10-17T18:03:00;19.10;99.90
31735;DHT22;18313;48.518;9.124;2022-10-17T18:05:46;19.10;99.90
31735;DHT22;18313;48.518;9.124;2022-10-17T18:08:32;19.00;99.90
31735;DHT22;18313;48.518;9.124;2022-10-17T18:11:17;19.00;99.90
31735;DHT22;18313;48.518;9.124;2022-10-17T18:14:10;18.90;99.90
31735;DHT22;18313;48.518;9.124;2022-10-17T18:16:56;18.70;99.90
31735;DHT22;18313;48.518;9.124;2022-10-17T18:19:41;18.70;99.90
31735;DHT22;18313;48.518;9.124;2022-10-17T18:22:27;18.70;99.90
31735;DHT22;18313;48.518;9.124;2022-10-17T18:25:13;18.70;99.90
31735;DHT22;18313;48.518;9.124;2022-10-17T18:27:59;18.50;99.90
31735;DHT22;18313;48.518;9.124;2022-10-17T18:30:45;18.30;99.90
31735;DHT22;18313;48.518;9.124;2022-10-17T18:33:30;18.20;99.90
31735;DHT22;18313;48.518;9.124;2022-10-17T18:36:16;18.00;99.90
31735;DHT22;18313;48.518;9.124;2022-10-17T18:39:02;18.00;99.90
31735;DHT22;18313;48.518;9.124;2022-10-17T18:41:47;17.90;99.90
31735;DHT22;18313;48.518;9.124;2022-10-17T18:44:33;17.90;99.90
31735;DHT22;18313;48.518;9.124;2022-10-17T18:47:19;17.80;99.90
31735;DHT22;18313;48.518;9.124;2022-10-17T18:50:05;17.70;99.90
31735;DHT22;18313;48.518;9.124;2022-10-17T18:52:50;17.70;99.90
31735;DHT22;18313;48.518;9.124;2022-10-17T18:55:38;17.70;99.90
31735;DHT22;18313;48.518;9.124;2022-10-17T18:58:24;17.80;99.90
31735;DHT22;18313;48.518;9.124;2022-10-17T19:01:12;18.00;99.90
31735;DHT22;18313;48.518;9.124;2022-10-17T19:04:02;17.80;99.90
31735;DHT22;18313;48.518;9.124;2022-10-17T19:06:47;17.70;99.90
31735;DHT22;18313;48.518;9.124;2022-10-17T19:09:33;17.60;99.90
31735;DHT22;18313;48.518;9.124;2022-10-17T19:12:19;17.50;99.90
31735;DHT22;18313;48.518;9.124;2022-10-17T19:15:04;17.40;99.90
31735;DHT22;18313;48.518;9.124;2022-10-17T19:17:50;17.30;99.90
31735;DHT22;18313;48.518;9.124;2022-10-17T19:20:35;17.30;99.90
31735;DHT22;18313;48.518;9.124;2022-10-17T19:23:21;17.20;99.90
31735;DHT22;18313;48.518;9.124;2022-10-17T19:26:09;17.20;99.90
31735;DHT22;18313;48.518;9.124;2022-10-17T19:28:55;17.00;99.90
31735;DHT22;18313;48.518;9.124;2022-10-17T19:31:41;17.00;99.90